EDT,Max TemperatureF,Mean TemperatureF,Min TemperatureF,Max Dew PointF,MeanDew PointF,Min DewpointF,Max Humidity, Mean Humidity, Min Humidity, Max Sea Level PressureIn, Mean Sea Level PressureIn, Min Sea Level PressureIn, Max VisibilityMiles, Mean VisibilityMiles, Min VisibilityMiles, Max Wind SpeedMPH, Mean Wind SpeedMPH, Max Gust SpeedMPH,PrecipitationIn, CloudCover, Events, WindDirDegrees
2013-4-1,69,61,53,50,39,34,82,44,28,30.04,30.00,29.91,10,10,10,12,8,22,0.00,2,,318
2013-4-2,60,52,44,32,28,25,57,37,27,30.20,30.15,30.11,10,10,10,12,6,20,0.00,4,,319
2013-4-3,59,52,44,41,31,27,81,47,31,30.19,30.16,30.11,10,9,5,10,5,18,0.00,8,Rain,87
2013-4-4,44,42,39,37,37,36,93,81,76,30.10,30.03,29.97,7,4,2,20,14,31,0.00,8,Rain,106
2013-4-5,62,52,42,43,37,30,87,58,30,30.06,30.00,29.97,10,8,2,15,8,21,0.00,3,,330
2013-4-6,69,54,39,39,36,34,87,43,27,30.21,30.15,30.11,10,10,10,12,5,17,0.00,2,,160
2013-4-7,73,62,51,48,44,39,67,47,33,30.20,30.14,30.07,10,10,10,12,6,17,0.00,3,,199
2013-4-8,77,65,53,52,49,41,77,52,31,30.16,30.11,30.07,10,10,9,14,4,21,0.00,3,,213
2013-4-9,80,66,53,64,53,52,94,55,37,30.21,30.15,30.08,10,10,10,9,3,,0.00,4,,190
2013-4-10,84,70,57,55,54,52,88,54,35,30.14,30.04,29.94,10,10,10,9,4,20,0.00,2,,184
2013-4-11,78,70,62,64,59,52,94,67,53,29.96,29.82,29.69,10,8,3,18,7,24,0.00,6,Rain-Thunderstorm,174
2013-4-12,66,60,53,54,40,34,88,51,32,29.95,29.87,29.77,10,10,7,15,11,23,0.00,2,,289
2013-4-13,73,62,51,45,37,34,63,39,25,30.06,30.02,29.97,10,10,10,13,7,23,0.00,2,,329
2013-4-14,62,55,48,52,47,41,88,74,48,30.06,30.00,29.92,10,9,5,16,6,26,0.00,8,Rain,113
2013-4-15,75,66,57,57,55,54,88,66,50,30.13,30.06,29.98,10,10,10,10,3,,0.00,4,,127
2013-4-16,78,69,60,61,60,57,88,63,54,30.26,30.21,30.17,10,9,5,14,8,17,0.00,5,,134
2013-4-17,82,74,66,63,60,57,78,60,48,30.24,30.16,30.10,10,10,10,9,5,18,0.00,6,,151
2013-4-18,80,70,60,59,56,54,88,55,42,30.10,30.02,29.93,10,10,10,14,9,25,0.00,4,,148
2013-4-19,69,58,46,63,47,36,88,76,62,30.06,29.92,29.81,10,9,2,16,10,25,0.00,7,Rain,282
2013-4-20,60,50,39,30,29,27,65,40,29,30.28,30.20,30.14,10,10,10,12,8,23,0.00,0,,335
2013-4-21,68,54,39,37,36,34,87,44,32,30.34,30.29,30.23,10,10,10,16,7,25,0.00,2,,108
2013-4-22,69,60,50,45,41,34,62,46,38,30.31,30.23,30.16,10,10,10,15,10,25,0.00,1,,108
2013-4-23,73,60,48,46,41,34,58,45,36,30.24,30.17,30.08,10,10,10,12,8,17,0.00,0,,135
2013-4-24,71,65,55,61,55,48,88,72,53,30.16,30.11,30.09,10,9,4,14,8,25,0.00,6,Rain,238
2013-4-25,66,54,42,39,33,25,81,44,21,30.33,30.27,30.21,10,10,10,13,8,20,0.00,0,,329
2013-4-26,75,58,42,43,38,34,76,39,25,30.38,30.33,30.27,10,10,10,14,5,25,0.00,3,,118
2013-4-27,69,63,57,52,50,46,77,61,46,30.31,30.23,30.15,10,10,7,15,10,24,0.00,6,,124
2013-4-28,60,58,57,57,55,54,94,89,82,30.11,30.06,30.02,7,3,2,8,5,16,0.00,8,Rain,126
2013-4-29,73,64,55,57,54,50,94,72,44,30.06,30.01,29.94,10,7,0,7,2,,0.00,5,Fog,306
2013-4-30,78,66,55,61,56,54,94,68,44,30.07,30.04,30.01,10,7,0,9,3,,0.00,5,Fog,124